sensor_id;sensor_type;location;lat;lon;timestamp;P1;durP1;ratioP1;P2;durP2;ratioP2
9473;SDS011;8865;47.636;7.692;2023-05-13T00:01:55;4.20;;;1.50;;
9473;SDS011;8865;47.636;7.692;2023-05-13T00:04:21;2.63;;;1.53;;
9473;SDS011;8865;47.636;7.692;2023-05-13T00:06:47;3.03;;;1.40;;
9473;SDS011;8865;47.636;7.692;2023-05-13T00:09:13;1.80;;;1.60;;
9473;SDS011;8865;47.636;7.692;2023-05-13T00:11:39;1.60;;;1.50;;
9473;SDS011;8865;47.636;7.692;2023-05-13T00:14:05;2.00;;;1.80;;
9473;SDS011;8865;47.636;7.692;2023-05-13T00:16:34;2.10;;;1.60;;
9473;SDS011;8865;47.636;7.692;2023-05-13T00:19:00;1.80;;;1.70;;
9473;SDS011;8865;47.636;7.692;2023-05-13T00:21:26;1.40;;;1.30;;
9473;SDS011;8865;47.636;7.692;2023-05-13T00:23:52;1.83;;;1.50;;
9473;SDS011;8865;47.636;7.692;2023-05-13T00:26:18;2.63;;;1.63;;
9473;SDS011;8865;47.636;7.692;2023-05-13T00:28:44;2.37;;;1.83;;
9473;SDS011;8865;47.636;7.692;2023-05-13T00:31:10;2.13;;;1.60;;
9473;SDS011;8865;47.636;7.692;2023-05-13T00:33:36;3.63;;;1.70;;
9473;SDS011;8865;47.636;7.692;2023-05-13T00:36:03;2.60;;;1.47;;
9473;SDS011;8865;47.636;7.692;2023-05-13T00:38:29;3.70;;;1.70;;
9473;SDS011;8865;47.636;7.692;2023-05-13T00:40:55;3.27;;;1.70;;
9473;SDS011;8865;47.636;7.692;2023-05-13T00:43:21;2.93;;;1.73;;
9473;SDS011;8865;47.636;7.692;2023-05-13T00:45:47;3.30;;;1.70;;
9473;SDS011;8865;47.636;7.692;2023-05-13T00:48:13;1.83;;;1.63;;
9473;SDS011;8865;47.636;7.692;2023-05-13T00:50:39;2.13;;;1.93;;
9473;SDS011;8865;47.636;7.692;2023-05-13T00:53:09;4.43;;;2.60;;
9473;SDS011;8865;47.636;7.692;2023-05-13T00:55:40;3.03;;;2.00;;
9473;SDS011;8865;47.636;7.692;2023-05-13T00:58:07;2.50;;;2.30;;
9473;SDS011;8865;47.636;7.692;2023-05-13T01:00:35;2.67;;;2.00;;
9473;SDS011;8865;47.636;7.692;2023-05-13T01:03:47;3.03;;;1.57;;
9473;SDS011;8865;47.636;7.692;2023-05-13T01:06:16;1.87;;;1.67;;
9473;SDS011;8865;47.636;7.692;2023-05-13T01:08:55;2.13;;;1.50;;
9473;SDS011;8865;47.636;7.692;2023-05-13T01:11:35;1.60;;;1.50;;
9473;SDS011;8865;47.636;7.692;2023-05-13T01:14:15;2.00;;;1.30;;
9473;SDS011;8865;47.636;7.692;2023-05-13T01:19:40;3.63;;;1.53;;
9473;SDS011;8865;47.636;7.692;2023-05-13T01:22:08;1.63;;;1.53;;
9473;SDS011;8865;47.636;7.692;2023-05-13T01:24:34;1.77;;;1.40;;
9473;SDS011;8865;47.636;7.692;2023-05-13T01:27:00;1.80;;;1.30;;
9473;SDS011;8865;47.636;7.692;2023-05-13T01:29:27;2.43;;;1.70;;
9473;SDS011;8865;47.636;7.692;2023-05-13T01:31:54;2.23;;;1.50;;
9473;SDS011;8865;47.636;7.692;2023-05-13T01:34:21;1.50;;;1.40;;
9473;SDS011;8865;47.636;7.692;2023-05-13T01:36:49;1.63;;;1.53;;
9473;SDS011;8865;47.636;7.692;2023-05-13T01:39:15;1.83;;;1.50;;
9473;SDS011;8865;47.636;7.692;2023-05-13T01:41:44;2.90;;;1.70;;
9473;SDS011;8865;47.636;7.692;2023-05-13T01:44:10;3.30;;;1.80;;
9473;SDS011;8865;47.636;7.692;2023-05-13T01:46:37;1.47;;;1.37;;
9473;SDS011;8865;47.636;7.692;2023-05-13T01:49:03;2.83;;;1.60;;
9473;SDS011;8865;47.636;7.692;2023-05-13T01:51:30;1.90;;;1.63;;
9473;SDS011;8865;47.636;7.692;2023-05-13T01:53:56;4.67;;;1.80;;
9473;SDS011;8865;47.636;7.692;2023-05-13T01:56:22;1.70;;;1.60;;
9473;SDS011;8865;47.636;7.692;2023-05-13T01:58:48;2.30;;;2.03;;
9473;SDS011;8865;47.636;7.692;2023-05-13T02:01:14;2.87;;;1.80;;
9473;SDS011;8865;47.636;7.692;2023-05-13T02:03:40;1.97;;;1.80;;
9473;SDS011;8865;47.636;7.692;2023-05-13T02:06:06;2.63;;;1.83;;
9473;SDS011;8865;47.636;7.692;2023-05-13T02:08:32;2.63;;;1.80;;
9473;SDS011;8865;47.636;7.692;2023-05-13T02:10:58;2.00;;;1.90;;
9473;SDS011;8865;47.636;7.692;2023-05-13T02:13:25;2.37;;;1.90;;
9473;SDS011;8865;47.636;7.692;2023-05-13T02:15:52;5.03;;;1.87;;
9473;SDS011;8865;47.636;7.692;2023-05-13T02:18:18;1.83;;;1.70;;
9473;SDS011;8865;47.636;7.692;2023-05-13T02:20:44;2.40;;;1.63;;
9473;SDS011;8865;47.636;7.692;2023-05-13T02:23:11;2.73;;;2.10;;
9473;SDS011;8865;47.636;7.692;2023-05-13T02:25:37;3.20;;;1.80;;
9473;SDS011;8865;47.636;7.692;2023-05-13T02:28:03;3.47;;;2.10;;
9473;SDS011;8865;47.636;7.692;2023-05-13T02:30:29;2.07;;;1.87;;
9473;SDS011;8865;47.636;7.692;2023-05-13T02:32:55;4.00;;;1.83;;
9473;SDS011;8865;47.636;7.692;2023-05-13T02:35:22;1.83;;;1.73;;
9473;SDS011;8865;47.636;7.692;2023-05-13T02:37:50;1.97;;;1.80;;
9473;SDS011;8865;47.636;7.692;2023-05-13T02:40:16;3.13;;;2.30;;
9473;SDS011;8865;47.636;7.692;2023-05-13T02:42:42;3.20;;;2.57;;
9473;SDS011;8865;47.636;7.692;2023-05-13T02:45:08;2.87;;;2.60;;
9473;SDS011;8865;47.636;7.692;2023-05-13T02:47:35;3.30;;;2.60;;
9473;SDS011;8865;47.636;7.692;2023-05-13T02:50:02;3.57;;;2.37;;
9473;SDS011;8865;47.636;7.692;2023-05-13T02:52:30;5.43;;;2.53;;
9473;SDS011;8865;47.636;7.692;2023-05-13T02:54:56;2.53;;;2.00;;
9473;SDS011;8865;47.636;7.692;2023-05-13T02:57:22;2.73;;;2.47;;
9473;SDS011;8865;47.636;7.692;2023-05-13T02:59:48;3.53;;;2.90;;
9473;SDS011;8865;47.636;7.692;2023-05-13T03:02:14;4.57;;;3.40;;
9473;SDS011;8865;47.636;7.692;2023-05-13T03:04:40;4.37;;;2.93;;
9473;SDS011;8865;47.636;7.692;2023-05-13T03:07:06;2.97;;;2.70;;
9473;SDS011;8865;47.636;7.692;2023-05-13T03:09:33;3.13;;;2.80;;
9473;SDS011;8865;47.636;7.692;2023-05-13T03:11:59;5.67;;;3.70;;
9473;SDS011;8865;47.636;7.692;2023-05-13T03:14:25;4.63;;;4.17;;
9473;SDS011;8865;47.636;7.692;2023-05-13T03:16:52;4.97;;;4.20;;
9473;SDS011;8865;47.636;7.692;2023-05-13T03:19:18;4.93;;;4.50;;
9473;SDS011;8865;47.636;7.692;2023-05-13T03:21:44;5.73;;;5.20;;
9473;SDS011;8865;47.636;7.692;2023-05-13T03:24:10;5.30;;;4.80;;
9473;SDS011;8865;47.636;7.692;2023-05-13T03:26:36;6.40;;;4.87;;
9473;SDS011;8865;47.636;7.692;2023-05-13T03:29:02;5.13;;;4.67;;
9473;SDS011;8865;47.636;7.692;2023-05-13T03:31:28;6.73;;;5.40;;
9473;SDS011;8865;47.636;7.692;2023-05-13T03:33:54;7.23;;;5.57;;
9473;SDS011;8865;47.636;7.692;2023-05-13T03:36:20;7.33;;;5.70;;
9473;SDS011;8865;47.636;7.692;2023-05-13T03:38:46;6.30;;;5.17;;
9473;SDS011;8865;47.636;7.692;2023-05-13T03:41:12;6.17;;;5.57;;
9473;SDS011;8865;47.636;7.692;2023-05-13T03:43:42;7.37;;;5.90;;
9473;SDS011;8865;47.636;7.692;2023-05-13T03:46:08;5.90;;;5.40;;
9473;SDS011;8865;47.636;7.692;2023-05-13T03:48:35;6.20;;;5.60;;
9473;SDS011;8865;47.636;7.692;2023-05-13T03:51:02;6.47;;;5.80;;
9473;SDS011;8865;47.636;7.692;2023-05-13T03:53:28;7.00;;;5.37;;
9473;SDS011;8865;47.636;7.692;2023-05-13T03:55:54;6.63;;;5.07;;
9473;SDS011;8865;47.636;7.692;2023-05-13T03:58:20;5.60;;;5.10;;
9473;SDS011;8865;47.636;7.692;2023-05-13T04:00:47;6.67;;;5.50;;
9473;SDS011;8865;47.636;7.692;2023-05-13T04:03:14;6.90;;;5.60;;
9473;SDS011;8865;47.636;7.692;2023-05-13T04:05:42;5.40;;;5.00;;
9473;SDS011;8865;47.636;7.692;2023-05-13T04:08:08;6.50;;;5.20;;
9473;SDS011;8865;47.636;7.692;2023-05-13T04:10:35;7.30;;;4.90;;
9473;SDS011;8865;47.636;7.692;2023-05-13T04:13:01;5.20;;;4.70;;
9473;SDS011;8865;47.636;7.692;2023-05-13T04:15:27;5.67;;;4.80;;
9473;SDS011;8865;47.636;7.692;2023-05-13T04:17:53;5.23;;;4.80;;
9473;SDS011;8865;47.636;7.692;2023-05-13T04:20:19;4.63;;;4.13;;
9473;SDS011;8865;47.636;7.692;2023-05-13T04:22:46;5.67;;;3.97;;
9473;SDS011;8865;47.636;7.692;2023-05-13T04:25:12;3.43;;;3.13;;
9473;SDS011;8865;47.636;7.692;2023-05-13T04:27:38;3.23;;;2.90;;
9473;SDS011;8865;47.636;7.692;2023-05-13T04:30:04;2.77;;;2.57;;
9473;SDS011;8865;47.636;7.692;2023-05-13T04:32:31;2.73;;;2.40;;
9473;SDS011;8865;47.636;7.692;2023-05-13T04:34:57;2.70;;;2.50;;
9473;SDS011;8865;47.636;7.692;2023-05-13T04:37:23;3.20;;;2.17;;
9473;SDS011;8865;47.636;7.692;2023-05-13T04:39:49;5.47;;;2.57;;
9473;SDS011;8865;47.636;7.692;2023-05-13T04:42:15;2.57;;;2.23;;
9473;SDS011;8865;47.636;7.692;2023-05-13T04:44:42;4.80;;;1.90;;
9473;SDS011;8865;47.636;7.692;2023-05-13T04:47:08;2.10;;;1.90;;
9473;SDS011;8865;47.636;7.692;2023-05-13T04:49:34;3.00;;;2.07;;
9473;SDS011;8865;47.636;7.692;2023-05-13T04:52:00;3.40;;;2.43;;
9473;SDS011;8865;47.636;7.692;2023-05-13T04:54:27;5.20;;;4.80;;
9473;SDS011;8865;47.636;7.692;2023-05-13T04:56:53;5.13;;;4.63;;
9473;SDS011;8865;47.636;7.692;2023-05-13T04:59:19;5.30;;;4.43;;
9473;SDS011;8865;47.636;7.692;2023-05-13T05:01:45;4.67;;;4.27;;
9473;SDS011;8865;47.636;7.692;2023-05-13T05:04:11;4.90;;;4.50;;
9473;SDS011;8865;47.636;7.692;2023-05-13T05:06:37;6.57;;;4.93;;
9473;SDS011;8865;47.636;7.692;2023-05-13T05:09:03;5.03;;;4.53;;
9473;SDS011;8865;47.636;7.692;2023-05-13T05:11:30;5.63;;;4.80;;
9473;SDS011;8865;47.636;7.692;2023-05-13T05:13:55;4.97;;;4.50;;
9473;SDS011;8865;47.636;7.692;2023-05-13T05:16:22;7.63;;;4.73;;
9473;SDS011;8865;47.636;7.692;2023-05-13T05:18:48;5.00;;;4.60;;
9473;SDS011;8865;47.636;7.692;2023-05-13T05:21:14;8.30;;;4.97;;
9473;SDS011;8865;47.636;7.692;2023-05-13T05:23:42;5.60;;;4.90;;
9473;SDS011;8865;47.636;7.692;2023-05-13T05:26:08;5.10;;;4.70;;
9473;SDS011;8865;47.636;7.692;2023-05-13T05:28:34;5.13;;;4.63;;
9473;SDS011;8865;47.636;7.692;2023-05-13T05:31:01;4.83;;;4.33;;
9473;SDS011;8865;47.636;7.692;2023-05-13T05:33:27;5.07;;;4.67;;
9473;SDS011;8865;47.636;7.692;2023-05-13T05:35:53;6.73;;;4.70;;
9473;SDS011;8865;47.636;7.692;2023-05-13T05:38:19;5.13;;;4.67;;
9473;SDS011;8865;47.636;7.692;2023-05-13T05:40:45;5.97;;;5.27;;
9473;SDS011;8865;47.636;7.692;2023-05-13T05:43:11;6.10;;;5.13;;
9473;SDS011;8865;47.636;7.692;2023-05-13T05:45:37;6.07;;;5.27;;
9473;SDS011;8865;47.636;7.692;2023-05-13T05:48:04;4.87;;;4.47;;
9473;SDS011;8865;47.636;7.692;2023-05-13T05:50:31;5.60;;;5.03;;
9473;SDS011;8865;47.636;7.692;2023-05-13T05:52:58;5.30;;;4.90;;
9473;SDS011;8865;47.636;7.692;2023-05-13T05:55:25;6.00;;;5.40;;
9473;SDS011;8865;47.636;7.692;2023-05-13T05:57:53;5.67;;;5.17;;
9473;SDS011;8865;47.636;7.692;2023-05-13T06:00:20;5.90;;;5.33;;
9473;SDS011;8865;47.636;7.692;2023-05-13T06:02:46;6.33;;;5.43;;
9473;SDS011;8865;47.636;7.692;2023-05-13T06:05:15;5.23;;;4.67;;
9473;SDS011;8865;47.636;7.692;2023-05-13T06:07:41;5.43;;;4.93;;
9473;SDS011;8865;47.636;7.692;2023-05-13T06:10:07;5.37;;;4.87;;
9473;SDS011;8865;47.636;7.692;2023-05-13T06:12:33;5.70;;;5.20;;
9473;SDS011;8865;47.636;7.692;2023-05-13T06:15:00;5.40;;;4.90;;
9473;SDS011;8865;47.636;7.692;2023-05-13T06:17:26;5.20;;;4.80;;
9473;SDS011;8865;47.636;7.692;2023-05-13T06:19:52;7.90;;;5.67;;
9473;SDS011;8865;47.636;7.692;2023-05-13T06:22:18;7.03;;;5.60;;
9473;SDS011;8865;47.636;7.692;2023-05-13T06:24:44;6.17;;;5.57;;
9473;SDS011;8865;47.636;7.692;2023-05-13T06:27:10;6.17;;;5.57;;
9473;SDS011;8865;47.636;7.692;2023-05-13T06:29:39;5.93;;;5.43;;
9473;SDS011;8865;47.636;7.692;2023-05-13T06:32:05;7.00;;;6.30;;
9473;SDS011;8865;47.636;7.692;2023-05-13T06:34:31;7.13;;;6.43;;
9473;SDS011;8865;47.636;7.692;2023-05-13T06:36:57;6.33;;;5.83;;
9473;SDS011;8865;47.636;7.692;2023-05-13T06:39:23;5.20;;;4.70;;
9473;SDS011;8865;47.636;7.692;2023-05-13T06:41:49;5.93;;;4.70;;
9473;SDS011;8865;47.636;7.692;2023-05-13T06:44:16;5.30;;;4.80;;
9473;SDS011;8865;47.636;7.692;2023-05-13T06:46:42;5.50;;;5.00;;
9473;SDS011;8865;47.636;7.692;2023-05-13T06:49:08;5.23;;;4.60;;
9473;SDS011;8865;47.636;7.692;2023-05-13T06:51:34;5.27;;;4.73;;
9473;SDS011;8865;47.636;7.692;2023-05-13T06:54:00;5.17;;;4.77;;
9473;SDS011;8865;47.636;7.692;2023-05-13T06:56:26;6.80;;;4.93;;
9473;SDS011;8865;47.636;7.692;2023-05-13T06:58:54;5.73;;;4.90;;
9473;SDS011;8865;47.636;7.692;2023-05-13T07:01:20;4.93;;;4.43;;
9473;SDS011;8865;47.636;7.692;2023-05-13T07:03:47;5.23;;;4.77;;
9473;SDS011;8865;47.636;7.692;2023-05-13T07:06:13;5.13;;;4.73;;
9473;SDS011;8865;47.636;7.692;2023-05-13T07:08:39;5.23;;;4.73;;
9473;SDS011;8865;47.636;7.692;2023-05-13T07:11:05;6.90;;;4.47;;
9473;SDS011;8865;47.636;7.692;2023-05-13T07:13:31;6.00;;;4.40;;
9473;SDS011;8865;47.636;7.692;2023-05-13T07:15:59;6.90;;;4.93;;
9473;SDS011;8865;47.636;7.692;2023-05-13T07:18:27;5.93;;;5.30;;
9473;SDS011;8865;47.636;7.692;2023-05-13T07:20:53;6.23;;;4.87;;
9473;SDS011;8865;47.636;7.692;2023-05-13T07:23:21;5.10;;;4.57;;
9473;SDS011;8865;47.636;7.692;2023-05-13T07:25:47;5.20;;;4.67;;
9473;SDS011;8865;47.636;7.692;2023-05-13T07:28:17;5.40;;;4.77;;
9473;SDS011;8865;47.636;7.692;2023-05-13T07:30:45;5.53;;;5.03;;
9473;SDS011;8865;47.636;7.692;2023-05-13T07:33:11;13.20;;;10.97;;
9473;SDS011;8865;47.636;7.692;2023-05-13T07:35:38;5.33;;;4.77;;
9473;SDS011;8865;47.636;7.692;2023-05-13T07:38:05;5.20;;;4.80;;
9473;SDS011;8865;47.636;7.692;2023-05-13T07:40:33;4.77;;;4.37;;
9473;SDS011;8865;47.636;7.692;2023-05-13T07:42:59;5.33;;;4.90;;
9473;SDS011;8865;47.636;7.692;2023-05-13T07:45:25;5.67;;;5.10;;
9473;SDS011;8865;47.636;7.692;2023-05-13T07:47:52;5.57;;;4.90;;
9473;SDS011;8865;47.636;7.692;2023-05-13T07:50:18;6.30;;;4.80;;
9473;SDS011;8865;47.636;7.692;2023-05-13T07:52:44;5.47;;;4.97;;
9473;SDS011;8865;47.636;7.692;2023-05-13T07:55:14;14.50;;;13.00;;
9473;SDS011;8865;47.636;7.692;2023-05-13T07:57:40;6.90;;;6.27;;
9473;SDS011;8865;47.636;7.692;2023-05-13T08:00:06;5.67;;;5.10;;
9473;SDS011;8865;47.636;7.692;2023-05-13T08:02:33;6.90;;;5.43;;
9473;SDS011;8865;47.636;7.692;2023-05-13T08:05:03;5.07;;;4.57;;
9473;SDS011;8865;47.636;7.692;2023-05-13T08:07:30;5.63;;;5.13;;
9473;SDS011;8865;47.636;7.692;2023-05-13T08:09:56;4.90;;;4.50;;
9473;SDS011;8865;47.636;7.692;2023-05-13T08:12:22;4.97;;;4.40;;
9473;SDS011;8865;47.636;7.692;2023-05-13T08:14:48;4.50;;;4.10;;
9473;SDS011;8865;47.636;7.692;2023-05-13T08:17:14;4.93;;;4.37;;
9473;SDS011;8865;47.636;7.692;2023-05-13T08:19:42;4.83;;;4.27;;
9473;SDS011;8865;47.636;7.692;2023-05-13T08:22:08;4.73;;;4.33;;
9473;SDS011;8865;47.636;7.692;2023-05-13T08:24:34;4.23;;;3.83;;
9473;SDS011;8865;47.636;7.692;2023-05-13T08:27:00;4.10;;;3.80;;
9473;SDS011;8865;47.636;7.692;2023-05-13T08:29:27;4.60;;;3.90;;
9473;SDS011;8865;47.636;7.692;2023-05-13T08:31:54;4.30;;;3.90;;
9473;SDS011;8865;47.636;7.692;2023-05-13T08:34:20;4.33;;;3.33;;
9473;SDS011;8865;47.636;7.692;2023-05-13T08:36:46;4.33;;;3.70;;
9473;SDS011;8865;47.636;7.692;2023-05-13T08:39:13;3.83;;;3.53;;
9473;SDS011;8865;47.636;7.692;2023-05-13T08:41:39;4.40;;;4.00;;
9473;SDS011;8865;47.636;7.692;2023-05-13T08:44:06;3.80;;;3.50;;
9473;SDS011;8865;47.636;7.692;2023-05-13T08:46:36;3.97;;;3.67;;
9473;SDS011;8865;47.636;7.692;2023-05-13T08:49:03;3.47;;;3.17;;
9473;SDS011;8865;47.636;7.692;2023-05-13T08:51:29;4.60;;;3.30;;
9473;SDS011;8865;47.636;7.692;2023-05-13T08:53:56;3.90;;;3.60;;
9473;SDS011;8865;47.636;7.692;2023-05-13T08:56:25;3.70;;;3.40;;
9473;SDS011;8865;47.636;7.692;2023-05-13T08:58:54;3.90;;;3.33;;
9473;SDS011;8865;47.636;7.692;2023-05-13T09:01:21;4.73;;;3.37;;
9473;SDS011;8865;47.636;7.692;2023-05-13T09:03:54;3.53;;;3.20;;
9473;SDS011;8865;47.636;7.692;2023-05-13T09:06:26;3.50;;;3.20;;
9473;SDS011;8865;47.636;7.692;2023-05-13T09:08:53;4.77;;;3.30;;
9473;SDS011;8865;47.636;7.692;2023-05-13T09:11:19;3.27;;;3.07;;
9473;SDS011;8865;47.636;7.692;2023-05-13T09:13:56;3.50;;;3.30;;
9473;SDS011;8865;47.636;7.692;2023-05-13T09:16:23;3.90;;;3.30;;
9473;SDS011;8865;47.636;7.692;2023-05-13T09:18:54;4.00;;;3.63;;
9473;SDS011;8865;47.636;7.692;2023-05-13T09:21:29;3.23;;;3.00;;
9473;SDS011;8865;47.636;7.692;2023-05-13T09:24:06;3.83;;;3.40;;
9473;SDS011;8865;47.636;7.692;2023-05-13T09:26:34;3.73;;;3.40;;
9473;SDS011;8865;47.636;7.692;2023-05-13T09:29:14;7.13;;;6.43;;
9473;SDS011;8865;47.636;7.692;2023-05-13T09:34:27;3.83;;;3.53;;
9473;SDS011;8865;47.636;7.692;2023-05-13T09:37:01;3.40;;;3.10;;
9473;SDS011;8865;47.636;7.692;2023-05-13T09:39:32;4.03;;;3.27;;
9473;SDS011;8865;47.636;7.692;2023-05-13T09:42:15;3.20;;;3.00;;
9473;SDS011;8865;47.636;7.692;2023-05-13T09:44:45;3.40;;;3.10;;
9473;SDS011;8865;47.636;7.692;2023-05-13T09:47:12;3.60;;;3.30;;
9473;SDS011;8865;47.636;7.692;2023-05-13T09:49:39;4.47;;;3.40;;
9473;SDS011;8865;47.636;7.692;2023-05-13T09:52:09;3.37;;;3.07;;
9473;SDS011;8865;47.636;7.692;2023-05-13T09:54:36;3.70;;;3.40;;
9473;SDS011;8865;47.636;7.692;2023-05-13T09:57:03;2.77;;;2.57;;
9473;SDS011;8865;47.636;7.692;2023-05-13T09:59:32;3.23;;;2.93;;
9473;SDS011;8865;47.636;7.692;2023-05-13T10:01:59;3.00;;;2.80;;
9473;SDS011;8865;47.636;7.692;2023-05-13T10:04:29;2.80;;;2.60;;
9473;SDS011;8865;47.636;7.692;2023-05-13T10:06:56;4.10;;;2.87;;
9473;SDS011;8865;47.636;7.692;2023-05-13T10:09:23;3.07;;;2.87;;
9473;SDS011;8865;47.636;7.692;2023-05-13T10:11:55;3.20;;;2.90;;
9473;SDS011;8865;47.636;7.692;2023-05-13T10:14:22;3.07;;;2.70;;
9473;SDS011;8865;47.636;7.692;2023-05-13T10:16:48;4.03;;;2.80;;
9473;SDS011;8865;47.636;7.692;2023-05-13T10:19:17;3.00;;;2.80;;
9473;SDS011;8865;47.636;7.692;2023-05-13T10:21:44;2.90;;;2.57;;
9473;SDS011;8865;47.636;7.692;2023-05-13T10:24:11;2.93;;;2.63;;
9473;SDS011;8865;47.636;7.692;2023-05-13T10:26:38;3.30;;;3.07;;
9473;SDS011;8865;47.636;7.692;2023-05-13T10:29:06;4.57;;;2.87;;
9473;SDS011;8865;47.636;7.692;2023-05-13T10:31:34;3.33;;;2.67;;
9473;SDS011;8865;47.636;7.692;2023-05-13T10:34:02;2.63;;;2.43;;
9473;SDS011;8865;47.636;7.692;2023-05-13T10:45:01;3.13;;;2.60;;
9473;SDS011;8865;47.636;7.692;2023-05-13T10:47:30;2.23;;;2.10;;
9473;SDS011;8865;47.636;7.692;2023-05-13T10:49:57;2.50;;;2.00;;
9473;SDS011;8865;47.636;7.692;2023-05-13T10:52:39;2.63;;;2.37;;
9473;SDS011;8865;47.636;7.692;2023-05-13T10:55:09;2.30;;;2.10;;
9473;SDS011;8865;47.636;7.692;2023-05-13T10:57:40;2.70;;;2.50;;
9473;SDS011;8865;47.636;7.692;2023-05-13T11:00:13;4.13;;;2.43;;
9473;SDS011;8865;47.636;7.692;2023-05-13T11:02:40;2.50;;;2.30;;
9473;SDS011;8865;47.636;7.692;2023-05-13T11:05:06;2.53;;;2.30;;
9473;SDS011;8865;47.636;7.692;2023-05-13T11:07:36;2.53;;;2.33;;
9473;SDS011;8865;47.636;7.692;2023-05-13T11:10:13;2.83;;;2.57;;
9473;SDS011;8865;47.636;7.692;2023-05-13T11:13:23;3.17;;;2.60;;
9473;SDS011;8865;47.636;7.692;2023-05-13T11:15:42;3.07;;;2.20;;
9473;SDS011;8865;47.636;7.692;2023-05-13T11:18:18;2.73;;;2.07;;
9473;SDS011;8865;47.636;7.692;2023-05-13T11:20:46;2.93;;;2.40;;
9473;SDS011;8865;47.636;7.692;2023-05-13T11:23:17;1.80;;;1.70;;
9473;SDS011;8865;47.636;7.692;2023-05-13T11:26:07;2.30;;;2.10;;
9473;SDS011;8865;47.636;7.692;2023-05-13T11:31:23;3.17;;;2.40;;
9473;SDS011;8865;47.636;7.692;2023-05-13T11:36:37;3.67;;;2.73;;
9473;SDS011;8865;47.636;7.692;2023-05-13T11:39:26;2.53;;;2.33;;
9473;SDS011;8865;47.636;7.692;2023-05-13T11:41:52;3.03;;;2.17;;
9473;SDS011;8865;47.636;7.692;2023-05-13T11:44:23;2.17;;;2.00;;
9473;SDS011;8865;47.636;7.692;2023-05-13T11:52:07;2.10;;;1.70;;
9473;SDS011;8865;47.636;7.692;2023-05-13T11:54:40;2.70;;;1.70;;
9473;SDS011;8865;47.636;7.692;2023-05-13T11:57:18;1.93;;;1.83;;
9473;SDS011;8865;47.636;7.692;2023-05-13T12:02:22;4.43;;;1.80;;
9473;SDS011;8865;47.636;7.692;2023-05-13T12:04:53;2.07;;;1.90;;
9473;SDS011;8865;47.636;7.692;2023-05-13T12:07:21;2.20;;;1.80;;
9473;SDS011;8865;47.636;7.692;2023-05-13T12:09:48;3.10;;;1.70;;
9473;SDS011;8865;47.636;7.692;2023-05-13T12:12:16;2.63;;;1.70;;
9473;SDS011;8865;47.636;7.692;2023-05-13T12:14:49;1.60;;;1.50;;
9473;SDS011;8865;47.636;7.692;2023-05-13T12:17:19;1.70;;;1.60;;
9473;SDS011;8865;47.636;7.692;2023-05-13T12:25:36;2.20;;;1.63;;
9473;SDS011;8865;47.636;7.692;2023-05-13T12:28:17;5.83;;;4.93;;
9473;SDS011;8865;47.636;7.692;2023-05-13T12:33:31;1.60;;;1.50;;
9473;SDS011;8865;47.636;7.692;2023-05-13T12:39:02;1.93;;;1.50;;
9473;SDS011;8865;47.636;7.692;2023-05-13T12:41:39;1.43;;;1.33;;
9473;SDS011;8865;47.636;7.692;2023-05-13T12:44:15;2.53;;;2.00;;
9473;SDS011;8865;47.636;7.692;2023-05-13T12:46:54;4.03;;;3.63;;
9473;SDS011;8865;47.636;7.692;2023-05-13T12:49:29;1.70;;;1.60;;
9473;SDS011;8865;47.636;7.692;2023-05-13T12:51:56;1.40;;;1.30;;
9473;SDS011;8865;47.636;7.692;2023-05-13T12:54:25;1.53;;;1.43;;
9473;SDS011;8865;47.636;7.692;2023-05-13T12:56:55;1.63;;;1.53;;
9473;SDS011;8865;47.636;7.692;2023-05-13T12:59:21;1.40;;;1.30;;
9473;SDS011;8865;47.636;7.692;2023-05-13T13:01:47;2.07;;;1.57;;
9473;SDS011;8865;47.636;7.692;2023-05-13T13:04:14;1.70;;;1.60;;
9473;SDS011;8865;47.636;7.692;2023-05-13T13:06:41;2.30;;;1.70;;
9473;SDS011;8865;47.636;7.692;2023-05-13T13:09:07;1.50;;;1.40;;
9473;SDS011;8865;47.636;7.692;2023-05-13T13:11:33;1.23;;;1.20;;
9473;SDS011;8865;47.636;7.692;2023-05-13T13:13:59;1.73;;;1.40;;
9473;SDS011;8865;47.636;7.692;2023-05-13T13:16:25;1.70;;;1.60;;
9473;SDS011;8865;47.636;7.692;2023-05-13T13:18:51;1.50;;;1.40;;
9473;SDS011;8865;47.636;7.692;2023-05-13T13:21:19;1.60;;;1.40;;
9473;SDS011;8865;47.636;7.692;2023-05-13T13:23:45;1.50;;;1.40;;
9473;SDS011;8865;47.636;7.692;2023-05-13T13:26:11;1.60;;;1.50;;
9473;SDS011;8865;47.636;7.692;2023-05-13T13:28:37;1.60;;;1.50;;
9473;SDS011;8865;47.636;7.692;2023-05-13T13:31:03;1.73;;;1.30;;
9473;SDS011;8865;47.636;7.692;2023-05-13T13:33:29;1.20;;;1.20;;
